| time (UTC) | temp F | wind direction | speed MPH | gust MPH | rain 1hr in | rain 24hr in | rain mn in | humidity % | barometer mb |
| 20260906212500 | 67 | 176 | 1.0 | 4.0 | 0.03 | 0.20 | 0.20 | 100 | 1015.6 |
| 20260906212428 | 67 | 176 | 1.0 | 4.0 | 0.03 | 0.20 | 0.20 | 100 | 1015.6 |
| 20260906211801 | 66 | 167 | 1.0 | 4.0 | 0.03 | 0.20 | 0.20 | 100 | 1015.8 |
| 20260906211428 | 66 | 187 | 1.0 | 6.0 | 0.01 | 0.18 | 0.18 | 100 | 1016.1 |
| 20260906211103 | 66 | 187 | 1.0 | 6.0 | 0.01 | 0.18 | 0.18 | 100 | 1016.1 |
| 20260906210428 | 66 | 231 | 2.0 | 9.0 | 0.07 | 0.17 | 0.17 | 100 | 1016.9 |
| 20260906210404 | 66 | 231 | 2.0 | 9.0 | 0.07 | 0.17 | 0.17 | 100 | 1016.9 |
| 20260906205700 | 67 | 223 | 3.0 | 9.0 | 0.06 | 0.16 | 0.16 | 100 | 1016.9 |
| 20260906205428 | 67 | 181 | 2.0 | 7.0 | 0.05 | 0.15 | 0.15 | 100 | 1017.0 |
| 20260906204959 | 67 | 175 | 2.0 | 8.0 | 0.04 | 0.14 | 0.14 | 100 | 1017.0 |
| 20260906204428 | 67 | 183 | 2.0 | 8.0 | 0.04 | 0.14 | 0.14 | 100 | 1017.3 |
| 20260906204314 | 67 | 183 | 2.0 | 8.0 | 0.04 | 0.14 | 0.14 | 100 | 1017.3 |
| 20260906203603 | 67 | 169 | 2.0 | 10.0 | 0.04 | 0.14 | 0.14 | 100 | 1017.5 |
| 20260906203428 | 67 | 175 | 4.0 | 11.0 | 0.04 | 0.14 | 0.14 | 100 | 1017.5 |
| 20260906202900 | 68 | 195 | 4.0 | 11.0 | 0.04 | 0.14 | 0.14 | 100 | 1017.7 |
| 20260906202428 | 68 | 195 | 3.0 | 9.0 | 0.03 | 0.13 | 0.13 | 100 | 1018.0 |
| 20260906202200 | 68 | 195 | 3.0 | 9.0 | 0.03 | 0.13 | 0.13 | 100 | 1018.0 |
| 20260906201502 | 69 | 130 | 2.0 | 6.0 | 0.02 | 0.12 | 0.12 | 100 | 1018.2 |
| 20260906201428 | 69 | 130 | 2.0 | 6.0 | 0.02 | 0.12 | 0.12 | 100 | 1018.2 |
| 20260906200801 | 69 | 185 | 1.0 | 6.0 | 0.01 | 0.11 | 0.11 | 99 | 1018.1 |
| 20260906200428 | 69 | 184 | 2.0 | 13.0 | 0.10 | 0.10 | 0.10 | 98 | 1017.6 |
| 20260906195428 | 69 | 93 | 6.0 | 15.0 | 0.08 | 0.08 | 0.08 | 98 | 1016.9 |
| 20260906195400 | 69 | 93 | 6.0 | 15.0 | 0.08 | 0.08 | 0.08 | 98 | 1016.9 |
| 20260906194701 | 69 | 94 | 3.0 | 8.0 | 0.06 | 0.06 | 0.06 | 98 | 1017.1 |
| 20260906194428 | 69 | 126 | 2.0 | 17.0 | 0.05 | 0.05 | 0.05 | 99 | 1017.2 |
| 20260906194000 | 69 | 114 | 3.0 | 17.0 | 0.04 | 0.04 | 0.04 | 98 | 1017.0 |
| 20260906193428 | 70 | 105 | 5.0 | 15.0 | 0.04 | 0.04 | 0.04 | 96 | 1016.7 |
| 20260906193300 | 70 | 105 | 5.0 | 15.0 | 0.04 | 0.04 | 0.04 | 96 | 1016.7 |
| 20260906192600 | 71 | 123 | 5.0 | 19.0 | 0.02 | 0.02 | 0.02 | 94 | 1016.6 |
| 20260906192427 | 74 | 115 | 3.0 | 19.0 | 0.00 | 0.00 | 0.00 | 91 | 1016.7 |
| 20260906191901 | 76 | 164 | 6.0 | 13.0 | 0.00 | 0.00 | 0.00 | 87 | 1016.6 |
| 20260906191427 | 79 | 116 | 4.0 | 11.0 | 0.00 | 0.00 | 0.00 | 89 | 1016.5 |
| 20260906191159 | 79 | 116 | 4.0 | 11.0 | 0.00 | 0.00 | 0.00 | 89 | 1016.5 |
| 20260906190500 | 79 | 234 | 1.0 | 2.0 | 0.00 | 0.00 | 0.00 | 91 | 1015.5 |
| 20260906190427 | 79 | 234 | 1.0 | 2.0 | 0.00 | 0.00 | 0.00 | 91 | 1015.5 |
| 20260906185800 | 79 | 234 | 0.0 | 2.0 | 0.00 | 0.00 | 0.00 | 91 | 1015.3 |
| 20260906185427 | 79 | 235 | 0.0 | 4.0 | 0.00 | 0.00 | 0.00 | 91 | 1015.2 |
| 20260906185100 | 79 | 235 | 0.0 | 4.0 | 0.00 | 0.00 | 0.00 | 91 | 1015.2 |
| 20260906184427 | 79 | 232 | 2.0 | 7.0 | 0.00 | 0.00 | 0.00 | 90 | 1015.1 |
| 20260906184401 | 79 | 232 | 2.0 | 7.0 | 0.00 | 0.00 | 0.00 | 90 | 1015.1 |
| 20260906183701 | 79 | 198 | 2.0 | 4.0 | 0.00 | 0.00 | 0.00 | 91 | 1015.1 |
| 20260906183429 | 79 | 194 | 1.0 | 4.0 | 0.00 | 0.00 | 0.00 | 91 | 1014.9 |
| 20260906183000 | 79 | 225 | 1.0 | 4.0 | 0.00 | 0.00 | 0.00 | 92 | 1014.8 |
| 20260906182429 | 79 | 224 | 1.0 | 3.0 | 0.00 | 0.00 | 0.00 | 92 | 1014.9 |
| 20260906182306 | 79 | 224 | 1.0 | 3.0 | 0.00 | 0.00 | 0.00 | 92 | 1014.9 |
| 20260906181600 | 79 | 224 | 1.0 | 5.0 | 0.00 | 0.00 | 0.00 | 92 | 1015.1 |
| 20260906181429 | 79 | 219 | 2.0 | 7.0 | 0.00 | 0.00 | 0.00 | 91 | 1015.3 |
| 20260906180859 | 80 | 221 | 1.0 | 7.0 | 0.00 | 0.00 | 0.00 | 92 | 1015.3 |
| 20260906180428 | 80 | 211 | 2.0 | 5.0 | 0.00 | 0.00 | 0.00 | 92 | 1015.5 |
| 20260906180200 | 80 | 211 | 2.0 | 5.0 | 0.00 | 0.00 | 0.00 | 92 | 1015.5 |
| 20260906175459 | 80 | 247 | 1.0 | 6.0 | 0.00 | 0.00 | 0.00 | 92 | 1015.6 |
| 20260906175428 | 80 | 247 | 1.0 | 6.0 | 0.00 | 0.00 | 0.00 | 92 | 1015.6 |
| 20260906174758 | 80 | 248 | 1.0 | 5.0 | 0.00 | 0.00 | 0.00 | 91 | 1015.5 |
| 20260906174427 | 80 | 232 | 1.0 | 4.0 | 0.00 | 0.00 | 0.00 | 93 | 1015.4 |
| 20260906174105 | 80 | 232 | 1.0 | 4.0 | 0.00 | 0.00 | 0.00 | 93 | 1015.4 |
| 20260906173429 | 80 | 232 | 0.0 | 4.0 | 0.00 | 0.00 | 0.00 | 93 | 1015.2 |
| 20260906173401 | 80 | 232 | 0.0 | 4.0 | 0.00 | 0.00 | 0.00 | 93 | 1015.2 |
| 20260906172700 | 80 | 232 | 1.0 | 4.0 | 0.00 | 0.00 | 0.00 | 94 | 1015.2 |
| 20260906172429 | 80 | 232 | 2.0 | 3.0 | 0.00 | 0.00 | 0.00 | 94 | 1015.2 |
| 20260906172001 | 80 | 232 | 0.0 | 6.0 | 0.00 | 0.00 | 0.00 | 94 | 1015.2 |
| 20260906171428 | 80 | 233 | 2.0 | 6.0 | 0.00 | 0.00 | 0.00 | 95 | 1015.2 |
| 20260906171304 | 80 | 233 | 2.0 | 6.0 | 0.00 | 0.00 | 0.00 | 95 | 1015.2 |
| 20260906170602 | 80 | 211 | 2.0 | 4.0 | 0.00 | 0.00 | 0.00 | 95 | 1015.3 |
| 20260906170428 | 80 | 208 | 1.0 | 3.0 | 0.00 | 0.00 | 0.00 | 95 | 1015.3 |
| 20260906165900 | 80 | 209 | 0.0 | 2.0 | 0.00 | 0.00 | 0.00 | 97 | 1015.1 |
| 20260906165428 | 80 | 208 | 0.0 | 3.0 | 0.00 | 0.00 | 0.00 | 98 | 1015.1 |
| 20260906164459 | 79 | 208 | 1.0 | 4.0 | 0.00 | 0.00 | 0.00 | 99 | 1015.1 |
| 20260906164428 | 79 | 208 | 1.0 | 4.0 | 0.00 | 0.00 | 0.00 | 99 | 1015.1 |
| 20260906163801 | 79 | 209 | 1.0 | 5.0 | 0.00 | 0.00 | 0.00 | 99 | 1015.1 |
| 20260906163428 | 79 | 211 | 0.0 | 5.0 | 0.00 | 0.00 | 0.00 | 100 | 1015.1 |
| 20260906163104 | 79 | 211 | 0.0 | 5.0 | 0.00 | 0.00 | 0.00 | 100 | 1015.1 |
| 20260906162429 | 78 | 207 | 0.0 | 3.0 | 0.00 | 0.00 | 0.00 | 100 | 1015.0 |
| 20260906162400 | 78 | 207 | 0.0 | 3.0 | 0.00 | 0.00 | 0.00 | 100 | 1015.0 |
| 20260906161700 | 78 | 185 | 2.0 | 5.0 | 0.00 | 0.00 | 0.00 | 100 | 1014.9 |
| 20260906161429 | 78 | 186 | 1.0 | 5.0 | 0.00 | 0.00 | 0.00 | 100 | 1014.9 |
| 20260906161001 | 78 | 173 | 1.0 | 6.0 | 0.00 | 0.00 | 0.00 | 100 | 1014.9 |
| 20260906160428 | 78 | 147 | 2.0 | 6.0 | 0.00 | 0.00 | 0.00 | 100 | 1014.9 |
| 20260906160300 | 78 | 147 | 2.0 | 6.0 | 0.00 | 0.00 | 0.00 | 100 | 1014.9 |
| 20260906155600 | 78 | 183 | 0.0 | 6.0 | 0.00 | 0.00 | 0.00 | 100 | 1014.9 |
| 20260906155428 | 78 | 180 | 1.0 | 6.0 | 0.00 | 0.00 | 0.00 | 100 | 1014.9 |
| 20260906154906 | 78 | 191 | 1.0 | 6.0 | 0.00 | 0.00 | 0.00 | 100 | 1015.0 |
| 20260906154428 | 78 | 182 | 3.0 | 6.0 | 0.00 | 0.00 | 0.00 | 100 | 1014.9 |
| 20260906154201 | 78 | 182 | 3.0 | 6.0 | 0.00 | 0.00 | 0.00 | 100 | 1014.9 |
| 20260906153501 | 77 | 172 | 2.0 | 6.0 | 0.00 | 0.00 | 0.00 | 100 | 1014.6 |
| 20260906153428 | 77 | 172 | 2.0 | 6.0 | 0.00 | 0.00 | 0.00 | 100 | 1014.6 |
| 20260906152759 | 77 | 177 | 3.0 | 5.0 | 0.00 | 0.00 | 0.00 | 100 | 1014.7 |
| 20260906152428 | 77 | 164 | 0.0 | 6.0 | 0.00 | 0.00 | 0.00 | 100 | 1014.7 |
| 20260906152102 | 77 | 164 | 0.0 | 6.0 | 0.00 | 0.00 | 0.00 | 100 | 1014.7 |
| 20260906151428 | 77 | 169 | 1.0 | 7.0 | 0.00 | 0.00 | 0.00 | 100 | 1014.7 |
| 20260906151401 | 77 | 169 | 1.0 | 7.0 | 0.00 | 0.00 | 0.00 | 100 | 1014.7 |
| 20260906150701 | 77 | 156 | 1.0 | 6.0 | 0.00 | 0.00 | 0.00 | 100 | 1014.7 |
| 20260906150427 | 77 | 181 | 1.0 | 6.0 | 0.00 | 0.00 | 0.00 | 100 | 1014.8 |
| 20260906145959 | 77 | 173 | 2.0 | 5.0 | 0.00 | 0.00 | 0.00 | 100 | 1014.9 |
| 20260906145427 | 77 | 178 | 1.0 | 9.0 | 0.00 | 0.00 | 0.00 | 100 | 1014.9 |
| 20260906145259 | 77 | 178 | 1.0 | 9.0 | 0.00 | 0.00 | 0.00 | 100 | 1014.9 |
| 20260906144603 | 77 | 184 | 2.0 | 9.0 | 0.00 | 0.00 | 0.00 | 100 | 1014.9 |
| 20260906144427 | 77 | 120 | 2.0 | 7.0 | 0.00 | 0.00 | 0.00 | 100 | 1014.8 |
| 20260906143900 | 77 | 180 | 3.0 | 7.0 | 0.00 | 0.00 | 0.00 | 100 | 1014.7 |
| 20260906143427 | 77 | 177 | 1.0 | 7.0 | 0.00 | 0.00 | 0.00 | 100 | 1014.6 |
| 20260906143158 | 77 | 177 | 1.0 | 7.0 | 0.00 | 0.00 | 0.00 | 100 | 1014.6 |
| 20260906142500 | 76 | 188 | 1.0 | 6.0 | 0.00 | 0.00 | 0.00 | 100 | 1014.6 |
| 20260906142429 | 76 | 188 | 1.0 | 6.0 | 0.00 | 0.00 | 0.00 | 100 | 1014.6 |
| 20260906141801 | 76 | 128 | 1.0 | 6.0 | 0.00 | 0.00 | 0.00 | 100 | 1014.5 |
| 20260906141429 | 76 | 140 | 2.0 | 6.0 | 0.00 | 0.00 | 0.00 | 100 | 1014.5 |
| 20260906141100 | 76 | 140 | 2.0 | 6.0 | 0.00 | 0.00 | 0.00 | 100 | 1014.5 |
| 20260906140429 | 76 | 161 | 2.0 | 7.0 | 0.00 | 0.00 | 0.00 | 100 | 1014.4 |
| 20260906140402 | 76 | 161 | 2.0 | 7.0 | 0.00 | 0.00 | 0.00 | 100 | 1014.4 |
| 20260906135702 | 76 | 125 | 1.0 | 7.0 | 0.00 | 0.00 | 0.00 | 100 | 1014.5 |
| 20260906135428 | 76 | 97 | 3.0 | 7.0 | 0.00 | 0.00 | 0.00 | 100 | 1014.5 |
| 20260906135003 | 76 | 98 | 1.0 | 7.0 | 0.00 | 0.00 | 0.00 | 100 | 1014.5 |
| 20260906134428 | 76 | 121 | 2.0 | 7.0 | 0.00 | 0.00 | 0.00 | 100 | 1014.5 |
| 20260906134303 | 76 | 121 | 2.0 | 7.0 | 0.00 | 0.00 | 0.00 | 100 | 1014.5 |
| 20260906133601 | 76 | 110 | 2.0 | 5.0 | 0.00 | 0.00 | 0.00 | 100 | 1014.5 |
| 20260906133427 | 75 | 106 | 1.0 | 7.0 | 0.00 | 0.00 | 0.00 | 100 | 1014.3 |
| 20260906132859 | 75 | 102 | 4.0 | 8.0 | 0.00 | 0.00 | 0.00 | 100 | 1014.5 |
| 20260906132427 | 75 | 85 | 2.0 | 8.0 | 0.00 | 0.00 | 0.00 | 100 | 1014.4 |
| 20260906132201 | 75 | 85 | 2.0 | 8.0 | 0.00 | 0.00 | 0.00 | 100 | 1014.4 |
| 20260906131503 | 75 | 100 | 3.0 | 5.0 | 0.00 | 0.00 | 0.00 | 100 | 1014.5 |
| 20260906131429 | 75 | 100 | 3.0 | 5.0 | 0.00 | 0.00 | 0.00 | 100 | 1014.5 |
| 20260906130805 | 75 | 94 | 2.0 | 5.0 | 0.00 | 0.00 | 0.00 | 100 | 1014.4 |
| 20260906130429 | 75 | 91 | 3.0 | 5.0 | 0.00 | 0.00 | 0.00 | 100 | 1014.4 |
| 20260906125429 | 75 | 114 | 4.0 | 7.0 | 0.00 | 0.00 | 0.00 | 100 | 1014.5 |
| 20260906125404 | 75 | 114 | 4.0 | 7.0 | 0.00 | 0.00 | 0.00 | 100 | 1014.5 |
| 20260906124659 | 75 | 96 | 3.0 | 5.0 | 0.00 | 0.00 | 0.00 | 100 | 1014.4 |
| 20260906124428 | 74 | 127 | 2.0 | 5.0 | 0.00 | 0.00 | 0.00 | 100 | 1014.3 |
| 20260906123959 | 74 | 93 | 3.0 | 6.0 | 0.00 | 0.00 | 0.00 | 100 | 1014.2 |
| 20260906123427 | 74 | 118 | 3.0 | 6.0 | 0.00 | 0.00 | 0.00 | 100 | 1014.1 |
| 20260906123300 | 74 | 118 | 3.0 | 6.0 | 0.00 | 0.00 | 0.00 | 100 | 1014.1 |
| 20260906122600 | 74 | 84 | 1.0 | 5.0 | 0.00 | 0.00 | 0.00 | 100 | 1013.9 |
| 20260906122427 | 74 | 112 | 2.0 | 5.0 | 0.00 | 0.00 | 0.00 | 100 | 1014.0 |
| 20260906121900 | 74 | 95 | 1.0 | 6.0 | 0.00 | 0.00 | 0.00 | 100 | 1013.9 |
| 20260906121427 | 74 | 98 | 2.0 | 7.0 | 0.00 | 0.00 | 0.00 | 100 | 1013.9 |
| 20260906121200 | 74 | 98 | 2.0 | 7.0 | 0.00 | 0.00 | 0.00 | 100 | 1013.9 |
| 20260906120503 | 74 | 100 | 3.0 | 5.0 | 0.00 | 0.00 | 0.00 | 100 | 1013.7 |
| 20260906120429 | 74 | 100 | 3.0 | 5.0 | 0.00 | 0.00 | 0.00 | 100 | 1013.7 |
| 20260906115800 | 74 | 108 | 2.0 | 6.0 | 0.00 | 0.01 | 0.00 | 100 | 1013.6 |
| 20260906115429 | 74 | 91 | 3.0 | 6.0 | 0.00 | 0.01 | 0.00 | 100 | 1013.6 |
| 20260906115104 | 74 | 91 | 3.0 | 6.0 | 0.00 | 0.01 | 0.00 | 100 | 1013.6 |
| 20260906114428 | 74 | 98 | 2.0 | 6.0 | 0.00 | 0.04 | 0.00 | 100 | 1013.6 |
| 20260906114400 | 74 | 98 | 2.0 | 6.0 | 0.00 | 0.04 | 0.00 | 100 | 1013.6 |
| 20260906113659 | 74 | 157 | 1.0 | 5.0 | 0.00 | 0.06 | 0.00 | 100 | 1013.7 |
| 20260906113428 | 74 | 122 | 2.0 | 5.0 | 0.00 | 0.08 | 0.00 | 100 | 1013.6 |
| 20260906113000 | 74 | 115 | 2.0 | 5.0 | 0.00 | 0.10 | 0.00 | 100 | 1013.6 |
| 20260906112428 | 74 | 98 | 2.0 | 5.0 | 0.00 | 0.13 | 0.00 | 100 | 1013.5 |
| 20260906112301 | 74 | 98 | 2.0 | 5.0 | 0.00 | 0.13 | 0.00 | 100 | 1013.5 |
| 20260906111600 | 74 | 128 | 2.0 | 5.0 | 0.00 | 0.16 | 0.00 | 100 | 1013.5 |
| 20260906111428 | 74 | 94 | 1.0 | 5.0 | 0.00 | 0.18 | 0.00 | 100 | 1013.6 |
| 20260906110859 | 74 | 150 | 2.0 | 5.0 | 0.00 | 0.20 | 0.00 | 100 | 1013.6 |
| 20260906110428 | 74 | 101 | 2.0 | 5.0 | 0.00 | 0.23 | 0.00 | 100 | 1013.6 |
| 20260906110159 | 74 | 101 | 2.0 | 5.0 | 0.00 | 0.23 | 0.00 | 100 | 1013.6 |
| 20260906105502 | 74 | 98 | 1.0 | 6.0 | 0.00 | 0.27 | 0.00 | 100 | 1013.7 |
| 20260906105428 | 74 | 98 | 1.0 | 6.0 | 0.00 | 0.27 | 0.00 | 100 | 1013.7 |
| 20260906104759 | 74 | 108 | 1.0 | 5.0 | 0.00 | 0.28 | 0.00 | 100 | 1013.6 |
| 20260906104427 | 74 | 91 | 3.0 | 5.0 | 0.00 | 0.29 | 0.00 | 100 | 1013.6 |
| 20260906104101 | 74 | 91 | 3.0 | 5.0 | 0.00 | 0.29 | 0.00 | 100 | 1013.6 |
| 20260906103427 | 74 | 117 | 2.0 | 6.0 | 0.00 | 0.30 | 0.00 | 100 | 1013.6 |
| 20260906103358 | 74 | 117 | 2.0 | 6.0 | 0.00 | 0.30 | 0.00 | 100 | 1013.6 |
| 20260906102658 | 74 | 112 | 2.0 | 6.0 | 0.00 | 0.32 | 0.00 | 100 | 1013.6 |
| 20260906102427 | 74 | 104 | 3.0 | 6.0 | 0.00 | 0.34 | 0.00 | 100 | 1013.4 |
| 20260906102002 | 74 | 93 | 4.0 | 6.0 | 0.00 | 0.36 | 0.00 | 100 | 1013.4 |
| 20260906101428 | 74 | 108 | 4.0 | 7.0 | 0.00 | 0.36 | 0.00 | 100 | 1013.5 |
| 20260906101304 | 74 | 108 | 4.0 | 7.0 | 0.00 | 0.36 | 0.00 | 100 | 1013.5 |
| 20260906100559 | 74 | 86 | 3.0 | 8.0 | 0.00 | 0.36 | 0.00 | 100 | 1013.5 |
| 20260906100428 | 74 | 87 | 3.0 | 8.0 | 0.00 | 0.36 | 0.00 | 100 | 1013.6 |
| 20260906095859 | 73 | 107 | 3.0 | 6.0 | 0.00 | 0.36 | 0.00 | 100 | 1013.6 |
| 20260906095428 | 73 | 93 | 4.0 | 6.0 | 0.00 | 0.36 | 0.00 | 100 | 1013.6 |
| 20260906095200 | 73 | 93 | 4.0 | 6.0 | 0.00 | 0.36 | 0.00 | 100 | 1013.6 |
| 20260906094504 | 73 | 103 | 2.0 | 4.0 | 0.00 | 0.36 | 0.00 | 100 | 1013.7 |
| 20260906094427 | 73 | 103 | 2.0 | 4.0 | 0.00 | 0.36 | 0.00 | 100 | 1013.7 |
| 20260906093759 | 73 | 103 | 2.0 | 4.0 | 0.00 | 0.36 | 0.00 | 100 | 1013.7 |
| 20260906093427 | 73 | 77 | 0.0 | 4.0 | 0.00 | 0.36 | 0.00 | 100 | 1013.7 |
| 20260906093059 | 73 | 77 | 0.0 | 4.0 | 0.00 | 0.36 | 0.00 | 100 | 1013.7 |
| 20260906092427 | 73 | 102 | 2.0 | 6.0 | 0.00 | 0.36 | 0.00 | 100 | 1013.9 |
| 20260906092402 | 73 | 102 | 2.0 | 6.0 | 0.00 | 0.36 | 0.00 | 100 | 1013.9 |
| 20260906091702 | 73 | 102 | 3.0 | 6.0 | 0.00 | 0.36 | 0.00 | 100 | 1013.9 |
| 20260906091429 | 73 | 125 | 3.0 | 6.0 | 0.00 | 0.36 | 0.00 | 100 | 1013.8 |
| 20260906091001 | 73 | 129 | 2.0 | 4.0 | 0.00 | 0.36 | 0.00 | 100 | 1013.8 |
| 20260906090428 | 73 | 129 | 2.0 | 4.0 | 0.00 | 0.36 | 0.00 | 100 | 1013.9 |
| 20260906090301 | 73 | 129 | 2.0 | 4.0 | 0.00 | 0.36 | 0.00 | 100 | 1013.9 |
| 20260906085602 | 73 | 130 | 2.0 | 4.0 | 0.00 | 0.36 | 0.00 | 100 | 1013.8 |
| 20260906085428 | 73 | 130 | 2.0 | 4.0 | 0.00 | 0.36 | 0.00 | 100 | 1013.9 |
| 20260906084902 | 73 | 130 | 2.0 | 4.0 | 0.00 | 0.36 | 0.00 | 100 | 1013.8 |
| 20260906084428 | 73 | 130 | 0.0 | 3.0 | 0.00 | 0.36 | 0.00 | 100 | 1013.9 |
| 20260906084159 | 73 | 130 | 0.0 | 3.0 | 0.00 | 0.36 | 0.00 | 100 | 1013.9 |
| 20260906083501 | 73 | 131 | 1.0 | 3.0 | 0.00 | 0.36 | 0.00 | 100 | 1013.8 |
| 20260906083427 | 73 | 131 | 1.0 | 3.0 | 0.00 | 0.36 | 0.00 | 100 | 1013.8 |
| 20260906082801 | 72 | 133 | 0.0 | 2.0 | 0.00 | 0.36 | 0.00 | 100 | 1013.6 |
| 20260906082427 | 72 | 133 | 0.0 | 3.0 | 0.00 | 0.36 | 0.00 | 100 | 1013.5 |
| 20260906082058 | 72 | 133 | 0.0 | 3.0 | 0.00 | 0.36 | 0.00 | 100 | 1013.5 |
| 20260906081429 | 72 | 145 | 1.0 | 3.0 | 0.00 | 0.36 | 0.00 | 100 | 1013.3 |
| 20260906081402 | 72 | 145 | 1.0 | 3.0 | 0.00 | 0.36 | 0.00 | 100 | 1013.3 |
| 20260906080701 | 72 | 153 | 1.0 | 3.0 | 0.00 | 0.36 | 0.00 | 100 | 1013.3 |
| 20260906080429 | 72 | 93 | 0.0 | 3.0 | 0.00 | 0.36 | 0.00 | 100 | 1013.3 |
| 20260906080002 | 72 | 106 | 1.0 | 3.0 | 0.00 | 0.36 | 0.00 | 100 | 1013.2 |
| 20260906075429 | 73 | 105 | 1.0 | 4.0 | 0.00 | 0.36 | 0.00 | 100 | 1013.3 |
| 20260906075305 | 73 | 105 | 1.0 | 4.0 | 0.00 | 0.36 | 0.00 | 100 | 1013.3 |
| 20260906074602 | 73 | 105 | 1.0 | 6.0 | 0.00 | 0.36 | 0.00 | 100 | 1013.4 |
| 20260906074428 | 73 | 165 | 1.0 | 6.0 | 0.00 | 0.36 | 0.00 | 100 | 1013.4 |
| 20260906073900 | 73 | 153 | 1.0 | 4.0 | 0.00 | 0.36 | 0.00 | 100 | 1013.5 |
| 20260906073427 | 73 | 137 | 0.0 | 5.0 | 0.00 | 0.36 | 0.00 | 100 | 1013.3 |
| 20260906073201 | 73 | 137 | 0.0 | 5.0 | 0.00 | 0.36 | 0.00 | 100 | 1013.3 |
| 20260906072458 | 73 | 96 | 2.0 | 6.0 | 0.00 | 0.36 | 0.00 | 100 | 1013.4 |
| 20260906072427 | 73 | 96 | 2.0 | 6.0 | 0.00 | 0.36 | 0.00 | 100 | 1013.4 |
| 20260906071800 | 73 | 86 | 2.0 | 7.0 | 0.00 | 0.36 | 0.00 | 100 | 1013.2 |
| 20260906071427 | 72 | 98 | 2.0 | 7.0 | 0.00 | 0.36 | 0.00 | 100 | 1013.3 |
| 20260906071102 | 72 | 98 | 2.0 | 7.0 | 0.00 | 0.36 | 0.00 | 100 | 1013.3 |
| 20260906070429 | 72 | 112 | 2.0 | 5.0 | 0.00 | 0.36 | 0.00 | 100 | 1013.4 |
| 20260906070402 | 72 | 112 | 2.0 | 5.0 | 0.00 | 0.36 | 0.00 | 100 | 1013.4 |
| 20260906065701 | 72 | 103 | 1.0 | 5.0 | 0.00 | 0.36 | 0.00 | 100 | 1013.3 |
| 20260906065429 | 72 | 104 | 3.0 | 5.0 | 0.00 | 0.36 | 0.00 | 100 | 1013.4 |
| 20260906065000 | 72 | 105 | 3.0 | 5.0 | 0.00 | 0.36 | 0.00 | 100 | 1013.4 |
| 20260906064429 | 72 | 92 | 2.0 | 4.0 | 0.00 | 0.36 | 0.00 | 100 | 1013.6 |
| 20260906064300 | 72 | 92 | 2.0 | 4.0 | 0.00 | 0.36 | 0.00 | 100 | 1013.6 |
| 20260906063600 | 72 | 107 | 2.0 | 4.0 | 0.00 | 0.36 | 0.00 | 100 | 1013.6 |
| 20260906063428 | 72 | 107 | 2.0 | 4.0 | 0.00 | 0.36 | 0.00 | 100 | 1013.5 |
| 20260906062901 | 72 | 107 | 2.0 | 4.0 | 0.00 | 0.36 | 0.00 | 100 | 1013.6 |
| 20260906062428 | 72 | 107 | 1.0 | 4.0 | 0.00 | 0.36 | 0.00 | 100 | 1013.5 |
| 20260906062203 | 72 | 107 | 1.0 | 4.0 | 0.00 | 0.36 | 0.00 | 100 | 1013.5 |
| 20260906061500 | 72 | 103 | 2.0 | 5.0 | 0.00 | 0.36 | 0.00 | 100 | 1013.4 |
| 20260906061428 | 72 | 103 | 2.0 | 5.0 | 0.00 | 0.36 | 0.00 | 100 | 1013.4 |
| 20260906060800 | 72 | 104 | 2.0 | 4.0 | 0.00 | 0.36 | 0.00 | 100 | 1013.5 |
| 20260906060428 | 72 | 104 | 2.0 | 3.0 | 0.00 | 0.36 | 0.00 | 100 | 1013.6 |
| 20260906060100 | 72 | 104 | 2.0 | 3.0 | 0.00 | 0.36 | 0.00 | 100 | 1013.6 |
| 20260906055428 | 72 | 104 | 1.0 | 3.0 | 0.00 | 0.36 | 0.00 | 100 | 1013.5 |
| 20260906055400 | 72 | 104 | 1.0 | 3.0 | 0.00 | 0.36 | 0.00 | 100 | 1013.5 |
| 20260906054700 | 72 | 104 | 0.0 | 2.0 | 0.00 | 0.36 | 0.00 | 100 | 1013.6 |
| 20260906054428 | 72 | 104 | 0.0 | 1.0 | 0.00 | 0.36 | 0.00 | 100 | 1013.7 |
| 20260906054001 | 72 | 104 | 0.0 | 1.0 | 0.00 | 0.36 | 0.00 | 99 | 1013.9 |
| 20260906053427 | 72 | 104 | 0.0 | 1.0 | 0.00 | 0.36 | 0.00 | 99 | 1013.9 |
| 20260906053259 | 72 | 104 | 0.0 | 1.0 | 0.00 | 0.36 | 0.00 | 99 | 1013.9 |
| 20260906052601 | 72 | 104 | 0.0 | 2.0 | 0.00 | 0.36 | 0.00 | 99 | 1013.7 |
| 20260906052427 | 72 | 104 | 0.0 | 3.0 | 0.00 | 0.36 | 0.00 | 99 | 1014.0 |
| 20260906051900 | 72 | 104 | 1.0 | 3.0 | 0.00 | 0.36 | 0.00 | 99 | 1013.9 |
| 20260906051427 | 72 | 104 | 2.0 | 3.0 | 0.00 | 0.36 | 0.00 | 98 | 1014.0 |
| 20260906051159 | 72 | 104 | 2.0 | 3.0 | 0.00 | 0.36 | 0.00 | 98 | 1014.0 |
| 20260906050459 | 72 | 104 | 0.0 | 3.0 | 0.00 | 0.36 | 0.36 | 97 | 1014.1 |
| 20260906050427 | 72 | 104 | 0.0 | 3.0 | 0.00 | 0.36 | 0.36 | 97 | 1014.1 |
| 20260906045759 | 73 | 104 | 1.0 | 3.0 | 0.00 | 0.36 | 0.36 | 97 | 1014.0 |
| 20260906045427 | 73 | 104 | 1.0 | 3.0 | 0.00 | 0.36 | 0.36 | 96 | 1013.9 |
| 20260906045100 | 73 | 104 | 1.0 | 3.0 | 0.00 | 0.36 | 0.36 | 96 | 1013.9 |
| 20260906044429 | 73 | 104 | 0.0 | 1.0 | 0.00 | 0.36 | 0.36 | 95 | 1014.1 |
| 20260906044402 | 73 | 104 | 0.0 | 1.0 | 0.00 | 0.36 | 0.36 | 95 | 1014.1 |
| 20260906043701 | 73 | 104 | 0.0 | 2.0 | 0.00 | 0.36 | 0.36 | 95 | 1014.1 |
| 20260906043429 | 74 | 104 | 1.0 | 3.0 | 0.00 | 0.36 | 0.36 | 95 | 1013.9 |
| 20260906043002 | 74 | 104 | 1.0 | 4.0 | 0.00 | 0.36 | 0.36 | 94 | 1014.0 |
| 20260906042429 | 74 | 104 | 1.0 | 4.0 | 0.00 | 0.36 | 0.36 | 94 | 1014.0 |
| 20260906042308 | 74 | 104 | 1.0 | 4.0 | 0.00 | 0.36 | 0.36 | 94 | 1014.0 |
| 20260906041600 | 74 | 182 | 1.0 | 4.0 | 0.00 | 0.36 | 0.36 | 94 | 1014.0 |
| 20260906041428 | 74 | 158 | 1.0 | 4.0 | 0.00 | 0.36 | 0.36 | 94 | 1013.8 |
| 20260906040904 | 74 | 142 | 1.0 | 2.0 | 0.00 | 0.36 | 0.36 | 93 | 1014.0 |
| 20260906040428 | 74 | 142 | 0.0 | 2.0 | 0.00 | 0.36 | 0.36 | 93 | 1013.9 |
| 20260906040202 | 74 | 142 | 0.0 | 2.0 | 0.00 | 0.36 | 0.36 | 93 | 1013.9 |
| 20260906035500 | 75 | 168 | 1.0 | 4.0 | 0.00 | 0.36 | 0.36 | 92 | 1013.9 |
| 20260906035428 | 75 | 168 | 1.0 | 4.0 | 0.00 | 0.36 | 0.36 | 92 | 1013.9 |
| 20260906034759 | 75 | 168 | 1.0 | 6.0 | 0.00 | 0.36 | 0.36 | 92 | 1013.9 |
| 20260906034428 | 75 | 158 | 1.0 | 6.0 | 0.00 | 0.36 | 0.36 | 92 | 1014.0 |
| 20260906034059 | 75 | 158 | 1.0 | 6.0 | 0.00 | 0.36 | 0.36 | 92 | 1014.0 |
| 20260906033428 | 75 | 171 | 1.0 | 7.0 | 0.00 | 0.36 | 0.36 | 91 | 1013.8 |
| 20260906033401 | 75 | 171 | 1.0 | 7.0 | 0.00 | 0.36 | 0.36 | 91 | 1013.8 |
| 20260906032659 | 75 | 194 | 2.0 | 6.0 | 0.00 | 0.36 | 0.36 | 90 | 1013.6 |
| 20260906032428 | 75 | 165 | 1.0 | 3.0 | 0.00 | 0.36 | 0.36 | 90 | 1013.6 |
| 20260906031959 | 75 | 165 | 1.0 | 6.0 | 0.00 | 0.36 | 0.36 | 89 | 1013.6 |
| 20260906031428 | 75 | 165 | 1.0 | 7.0 | 0.00 | 0.36 | 0.36 | 89 | 1013.6 |
| 20260906031300 | 75 | 165 | 1.0 | 7.0 | 0.00 | 0.36 | 0.36 | 89 | 1013.6 |
| 20260906030600 | 75 | 192 | 1.0 | 7.0 | 0.00 | 0.36 | 0.36 | 88 | 1013.6 |
| 20260906030427 | 76 | 137 | 2.0 | 3.0 | 0.00 | 0.36 | 0.36 | 88 | 1013.4 |
| 20260906025859 | 76 | 185 | 1.0 | 3.0 | 0.00 | 0.36 | 0.36 | 87 | 1013.7 |
| 20260906025427 | 76 | 148 | 1.0 | 3.0 | 0.00 | 0.36 | 0.36 | 86 | 1013.6 |
| 20260906025158 | 76 | 148 | 1.0 | 3.0 | 0.00 | 0.36 | 0.36 | 86 | 1013.6 |
| 20260906024501 | 77 | 110 | 1.0 | 3.0 | 0.00 | 0.36 | 0.36 | 86 | 1013.7 |
| 20260906024429 | 77 | 110 | 1.0 | 3.0 | 0.00 | 0.36 | 0.36 | 86 | 1013.7 |
| 20260906023801 | 77 | 115 | 1.0 | 4.0 | 0.00 | 0.36 | 0.36 | 85 | 1013.7 |
| 20260906023429 | 77 | 106 | 0.0 | 5.0 | 0.00 | 0.36 | 0.36 | 85 | 1013.6 |
| 20260906023100 | 77 | 106 | 0.0 | 5.0 | 0.00 | 0.36 | 0.36 | 85 | 1013.6 |
| 20260906022429 | 77 | 109 | 1.0 | 4.0 | 0.00 | 0.36 | 0.36 | 83 | 1013.4 |
| 20260906022400 | 77 | 109 | 1.0 | 4.0 | 0.00 | 0.36 | 0.36 | 83 | 1013.4 |
| 20260906021700 | 77 | 106 | 1.0 | 5.0 | 0.00 | 0.36 | 0.36 | 83 | 1013.3 |
| 20260906021429 | 78 | 90 | 2.0 | 5.0 | 0.00 | 0.36 | 0.36 | 82 | 1013.2 |
| 20260906021002 | 78 | 143 | 1.0 | 3.0 | 0.00 | 0.36 | 0.36 | 82 | 1013.3 |
| 20260906020429 | 78 | 109 | 1.0 | 3.0 | 0.00 | 0.36 | 0.36 | 81 | 1013.4 |
| 20260906020300 | 78 | 109 | 1.0 | 3.0 | 0.00 | 0.36 | 0.36 | 81 | 1013.4 |
| 20260906015601 | 78 | 109 | 0.0 | 2.0 | 0.00 | 0.36 | 0.36 | 81 | 1013.2 |
| 20260906015428 | 79 | 109 | 0.0 | 4.0 | 0.00 | 0.36 | 0.36 | 80 | 1012.9 |
| 20260906014901 | 79 | 109 | 1.0 | 4.0 | 0.00 | 0.36 | 0.36 | 80 | 1013.0 |
| 20260906014428 | 79 | 141 | 1.0 | 4.0 | 0.00 | 0.36 | 0.36 | 79 | 1013.1 |
| 20260906014200 | 79 | 141 | 1.0 | 4.0 | 0.00 | 0.36 | 0.36 | 79 | 1013.1 |
| 20260906013501 | 80 | 169 | 1.0 | 5.0 | 0.00 | 0.36 | 0.36 | 78 | 1013.0 |
| 20260906013428 | 80 | 169 | 1.0 | 5.0 | 0.00 | 0.36 | 0.36 | 78 | 1013.0 |
| 20260906012759 | 80 | 108 | 1.0 | 5.0 | 0.00 | 0.36 | 0.36 | 77 | 1012.9 |
| 20260906012428 | 80 | 176 | 1.0 | 5.0 | 0.00 | 0.36 | 0.36 | 76 | 1012.9 |
| 20260906012059 | 80 | 176 | 1.0 | 5.0 | 0.00 | 0.36 | 0.36 | 76 | 1012.9 |
| 20260906011428 | 81 | 100 | 1.0 | 3.0 | 0.00 | 0.36 | 0.36 | 75 | 1012.9 |
| 20260906011400 | 81 | 100 | 1.0 | 3.0 | 0.00 | 0.36 | 0.36 | 75 | 1012.9 |
| 20260906010659 | 81 | 139 | 1.0 | 3.0 | 0.00 | 0.36 | 0.36 | 74 | 1013.0 |
| 20260906010428 | 81 | 141 | 1.0 | 5.0 | 0.00 | 0.36 | 0.36 | 73 | 1013.0 |
| 20260906010000 | 82 | 118 | 1.0 | 5.0 | 0.00 | 0.36 | 0.36 | 73 | 1013.0 |
| 20260906005427 | 82 | 160 | 1.0 | 6.0 | 0.00 | 0.36 | 0.36 | 72 | 1012.9 |
| 20260906005300 | 82 | 160 | 1.0 | 6.0 | 0.00 | 0.36 | 0.36 | 72 | 1012.9 |
| 20260906004600 | 83 | 103 | 2.0 | 6.0 | 0.00 | 0.36 | 0.36 | 71 | 1012.9 |
| 20260906004427 | 83 | 161 | 1.0 | 4.0 | 0.00 | 0.36 | 0.36 | 70 | 1012.9 |
| 20260906003902 | 83 | 135 | 2.0 | 6.0 | 0.00 | 0.36 | 0.36 | 69 | 1013.0 |
| 20260906003428 | 84 | 80 | 1.0 | 6.0 | 0.00 | 0.36 | 0.36 | 69 | 1012.9 |
| 20260906003201 | 84 | 80 | 1.0 | 6.0 | 0.00 | 0.36 | 0.36 | 69 | 1012.9 |
| 20260906002500 | 85 | 150 | 1.0 | 6.0 | 0.00 | 0.36 | 0.36 | 66 | 1012.6 |
| 20260906002428 | 85 | 150 | 1.0 | 6.0 | 0.00 | 0.36 | 0.36 | 66 | 1012.6 |
| 20260906001759 | 85 | 137 | 2.0 | 5.0 | 0.00 | 0.36 | 0.36 | 65 | 1012.6 |
| 20260906001428 | 85 | 168 | 1.0 | 4.0 | 0.00 | 0.36 | 0.36 | 64 | 1012.5 |
| 20260906001059 | 85 | 168 | 1.0 | 4.0 | 0.00 | 0.36 | 0.36 | 64 | 1012.5 |
| 20260906000428 | 86 | 161 | 1.0 | 6.0 | 0.00 | 0.36 | 0.36 | 63 | 1012.3 |
| 20260906000400 | 86 | 161 | 1.0 | 6.0 | 0.00 | 0.36 | 0.36 | 63 | 1012.3 |
| 20260905235659 | 86 | 151 | 1.0 | 4.0 | 0.00 | 0.36 | 0.36 | 63 | 1012.0 |
| 20260905235428 | 86 | 145 | 2.0 | 7.0 | 0.00 | 0.36 | 0.36 | 63 | 1012.0 |
| 20260905234959 | 86 | 184 | 2.0 | 7.0 | 0.00 | 0.36 | 0.36 | 62 | 1012.1 |
| 20260905234427 | 87 | 180 | 1.0 | 8.0 | 0.00 | 0.36 | 0.36 | 62 | 1012.0 |
| 20260905234259 | 87 | 180 | 1.0 | 8.0 | 0.00 | 0.36 | 0.36 | 62 | 1012.0 |
| 20260905233600 | 87 | 183 | 3.0 | 8.0 | 0.00 | 0.36 | 0.36 | 61 | 1012.1 |
| 20260905233427 | 87 | 203 | 1.0 | 8.0 | 0.00 | 0.36 | 0.36 | 61 | 1012.1 |
| 20260905232858 | 87 | 173 | 2.0 | 10.0 | 0.00 | 0.36 | 0.36 | 62 | 1012.1 |
| 20260905232427 | 87 | 173 | 2.0 | 11.0 | 0.00 | 0.36 | 0.36 | 62 | 1012.1 |
| 20260905232200 | 87 | 173 | 2.0 | 11.0 | 0.00 | 0.36 | 0.36 | 62 | 1012.1 |
| 20260905231501 | 87 | 158 | 2.0 | 8.0 | 0.00 | 0.36 | 0.36 | 63 | 1012.1 |
| 20260905231429 | 87 | 158 | 2.0 | 8.0 | 0.00 | 0.36 | 0.36 | 63 | 1012.1 |
| 20260905230801 | 87 | 156 | 3.0 | 6.0 | 0.00 | 0.36 | 0.36 | 62 | 1012.1 |
| 20260905230429 | 87 | 191 | 2.0 | 5.0 | 0.00 | 0.36 | 0.36 | 62 | 1012.1 |
| 20260905230100 | 87 | 191 | 2.0 | 5.0 | 0.00 | 0.36 | 0.36 | 62 | 1012.1 |
| 20260905225429 | 88 | 167 | 4.0 | 8.0 | 0.00 | 0.36 | 0.36 | 61 | 1012.1 |
| 20260905225401 | 88 | 167 | 4.0 | 8.0 | 0.00 | 0.36 | 0.36 | 61 | 1012.1 |
| 20260905224700 | 88 | 139 | 2.0 | 6.0 | 0.00 | 0.36 | 0.36 | 61 | 1012.1 |
| 20260905224429 | 88 | 152 | 1.0 | 7.0 | 0.00 | 0.36 | 0.36 | 60 | 1012.1 |
| 20260905224004 | 88 | 167 | 3.0 | 8.0 | 0.00 | 0.36 | 0.36 | 59 | 1012.1 |
| 20260905223428 | 88 | 184 | 1.0 | 8.0 | 0.00 | 0.36 | 0.36 | 60 | 1012.2 |
| 20260905223300 | 88 | 184 | 1.0 | 8.0 | 0.00 | 0.36 | 0.36 | 60 | 1012.2 |
| 20260905222604 | 88 | 205 | 2.0 | 7.0 | 0.00 | 0.36 | 0.36 | 59 | 1012.2 |
| 20260905222428 | 88 | 164 | 1.0 | 6.0 | 0.00 | 0.36 | 0.36 | 60 | 1012.2 |
| 20260905221859 | 88 | 190 | 3.0 | 8.0 | 0.00 | 0.36 | 0.36 | 60 | 1012.1 |
| 20260905221428 | 88 | 162 | 2.0 | 8.0 | 0.00 | 0.36 | 0.36 | 60 | 1012.2 |
| 20260905221200 | 88 | 162 | 2.0 | 8.0 | 0.00 | 0.36 | 0.36 | 60 | 1012.2 |
| 20260905220501 | 88 | 160 | 2.0 | 5.0 | 0.00 | 0.36 | 0.36 | 60 | 1012.1 |
| 20260905220428 | 88 | 160 | 2.0 | 5.0 | 0.00 | 0.36 | 0.36 | 60 | 1012.1 |
| 20260905215759 | 88 | 140 | 2.0 | 6.0 | 0.00 | 0.36 | 0.36 | 61 | 1012.0 |
| 20260905215428 | 88 | 116 | 3.0 | 7.0 | 0.00 | 0.36 | 0.36 | 60 | 1012.0 |
| 20260905215100 | 88 | 116 | 3.0 | 7.0 | 0.00 | 0.36 | 0.36 | 60 | 1012.0 |
| 20260905214428 | 88 | 135 | 2.0 | 7.0 | 0.00 | 0.36 | 0.36 | 61 | 1012.0 |
| 20260905214401 | 88 | 135 | 2.0 | 7.0 | 0.00 | 0.36 | 0.36 | 61 | 1012.0 |
| 20260905213701 | 88 | 144 | 2.0 | 7.0 | 0.00 | 0.36 | 0.36 | 60 | 1012.0 |
| 20260905213428 | 88 | 168 | 3.0 | 7.0 | 0.00 | 0.36 | 0.36 | 59 | 1011.9 |
| 20260905213001 | 88 | 148 | 2.0 | 7.0 | 0.00 | 0.36 | 0.36 | 59 | 1012.0 |